Time;durP1;ratioP1;P1;durP2;ratioP2;P2;SDS_P1;SDS_P2;PMS_P1;PMS_P2;Temp;Humidity;BMP_temperature;BMP_pressure;BME280_temperature;BME280_humidity;BME280_pressure;Samples;Min_cycle;Max_cycle;Signal;HPM_P1;HPM_P2
2022/09/10 00:00:55;;;;;;;0.10;0.10;;;16.00;99.90;;;;;;4996174;28;20123;-71
2022/09/10 00:03:23;;;;;;;0.13;0.13;;;16.00;99.90;;;;;;4989302;28;20133;-71
2022/09/10 00:05:49;;;;;;;0.10;0.10;;;15.90;99.90;;;;;;4988986;28;20050;-71
2022/09/10 00:08:16;;;;;;;2.05;1.90;;;16.00;99.90;;;;;;4989414;28;20494;-71
2022/09/10 00:10:45;;;;;;;0.10;0.10;;;15.90;99.90;;;;;;5003229;28;20060;-71
2022/09/10 00:13:18;;;;;;;0.10;0.10;;;15.80;99.90;;;;;;5008161;28;20057;-71
2022/09/10 00:15:47;;;;;;;0.00;0.00;;;15.90;99.90;;;;;;5010691;28;20404;-71
2022/09/10 00:18:14;;;;;;;0.00;0.00;;;15.90;99.90;;;;;;4998843;28;20068;-71
2022/09/10 00:20:54;;;;;;;0.10;0.10;;;15.80;99.90;;;;;;4990206;28;20121;-71
2022/09/10 00:23:23;;;;;;;0.10;0.10;;;15.90;99.90;;;;;;4990797;28;20050;-70
2022/09/10 00:25:51;;;;;;;0.85;0.85;;;15.90;99.90;;;;;;4998039;28;20064;-71
2022/09/10 00:28:17;;;;;;;0.30;0.30;;;15.90;99.90;;;;;;5009139;28;20093;-71
2022/09/10 00:30:45;;;;;;;0.20;0.20;;;15.90;99.90;;;;;;5009139;28;20129;-71
2022/09/10 00:33:12;;;;;;;0.38;0.38;;;15.90;99.90;;;;;;5007986;28;20053;-71
2022/09/10 00:35:39;;;;;;;1.10;1.00;;;15.90;99.90;;;;;;5009418;28;20042;-71
2022/09/10 00:38:06;;;;;;;1.45;0.95;;;15.90;99.90;;;;;;5008565;28;20452;-71
2022/09/10 00:40:32;;;;;;;0.40;0.40;;;15.90;99.90;;;;;;5005438;28;23410;-71
2022/09/10 00:42:58;;;;;;;0.43;0.43;;;15.90;99.90;;;;;;4990629;28;20046;-71
2022/09/10 00:45:26;;;;;;;0.43;0.43;;;15.90;99.90;;;;;;5002517;28;20133;-71
2022/09/10 00:47:55;;;;;;;0.40;0.35;;;16.00;99.90;;;;;;5005780;28;20060;-71
2022/09/10 00:50:26;;;;;;;3.53;0.65;;;15.90;99.90;;;;;;4991637;28;20046;-71
2022/09/10 00:52:55;;;;;;;0.20;0.20;;;15.90;99.90;;;;;;4993141;28;20057;-71
2022/09/10 00:55:21;;;;;;;0.45;0.43;;;15.90;99.90;;;;;;4994097;28;20125;-71
2022/09/10 00:57:50;;;;;;;1.35;0.38;;;15.90;99.90;;;;;;4991387;28;20066;-71
2022/09/10 01:00:17;;;;;;;0.43;0.43;;;15.90;99.90;;;;;;4991914;28;20090;-71
2022/09/10 01:02:43;;;;;;;0.20;0.20;;;15.90;99.90;;;;;;5011127;28;20100;-71
2022/09/10 01:05:09;;;;;;;0.40;0.40;;;15.90;99.90;;;;;;4997695;28;20046;-71
2022/09/10 01:07:35;;;;;;;0.17;0.17;;;16.00;99.90;;;;;;4993173;28;20368;-71
2022/09/10 01:10:10;;;;;;;0.00;0.00;;;16.00;99.90;;;;;;4995138;28;20081;-71
2022/09/10 01:13:08;;;;;;;0.80;0.80;;;15.90;99.90;;;;;;4993890;28;20487;-71
2022/09/10 01:16:09;;;;;;;0.75;0.57;;;16.00;99.90;;;;;;4992239;28;20050;-71
2022/09/10 01:19:07;;;;;;;0.17;0.17;;;16.00;99.90;;;;;;4994760;28;20527;-71
2022/09/10 01:22:00;;;;;;;0.10;0.10;;;16.00;99.90;;;;;;4992352;28;20529;-71
2022/09/10 01:24:53;;;;;;;0.10;0.10;;;16.00;99.90;;;;;;4992709;28;20155;-71
2022/09/10 01:27:33;;;;;;;0.50;0.17;;;16.00;99.90;;;;;;5009782;28;20090;-71
2022/09/10 01:30:07;;;;;;;1.40;0.77;;;16.00;99.90;;;;;;5009129;28;20133;-71
2022/09/10 01:32:55;;;;;;;0.77;0.73;;;16.00;99.90;;;;;;5012010;28;20555;-71
2022/09/10 01:35:44;;;;;;;0.15;0.15;;;16.00;99.90;;;;;;5010762;28;20046;-71
2022/09/10 01:38:19;;;;;;;0.47;0.47;;;16.00;99.90;;;;;;5009901;28;20058;-71
2022/09/10 01:40:45;;;;;;;2.17;0.82;;;16.00;99.90;;;;;;4993881;28;20054;-71
2022/09/10 01:43:11;;;;;;;0.15;0.15;;;15.90;99.90;;;;;;4991668;28;20080;-71
2022/09/10 01:46:03;;;;;;;0.25;0.25;;;15.90;99.90;;;;;;4992526;28;20469;-71
2022/09/10 01:49:09;;;;;;;2.60;1.02;;;15.90;99.90;;;;;;4993331;28;20441;-71
2022/09/10 01:52:00;;;;;;;0.55;0.55;;;15.90;99.90;;;;;;4993908;28;20050;-71
2022/09/10 01:54:44;;;;;;;0.30;0.30;;;15.90;99.90;;;;;;5012704;28;20394;-71
2022/09/10 01:57:09;;;;;;;;;;;16.00;99.90;;;;;;5010514;28;20490;-71
2022/09/10 01:59:49;;;;;;;0.52;0.52;;;16.00;99.90;;;;;;5011740;28;19932;-71
2022/09/10 02:02:23;;;;;;;0.10;0.10;;;16.00;99.90;;;;;;5007122;28;20112;-71
2022/09/10 02:04:50;;;;;;;1.85;0.63;;;15.90;99.90;;;;;;5010544;28;20137;-71
2022/09/10 02:07:21;;;;;;;1.00;0.82;;;15.90;99.90;;;;;;5012089;28;20053;-71
2022/09/10 02:09:48;;;;;;;0.05;0.05;;;15.90;99.90;;;;;;4996483;28;20057;-71
2022/09/10 02:12:21;;;;;;;0.00;0.00;;;15.90;99.90;;;;;;4990506;28;20058;-71
2022/09/10 02:14:49;;;;;;;1.23;1.15;;;15.80;99.90;;;;;;4993163;28;20047;-71
2022/09/10 02:17:15;;;;;;;0.10;0.10;;;15.80;99.90;;;;;;5001318;28;20050;-71
2022/09/10 02:19:43;;;;;;;0.15;0.15;;;15.80;99.90;;;;;;5011646;28;20379;-71
2022/09/10 02:22:09;;;;;;;0.60;0.60;;;15.80;99.90;;;;;;5011718;28;20046;-71
2022/09/10 02:24:35;;;;;;;0.60;0.60;;;15.80;99.90;;;;;;5011314;28;20481;-71
2022/09/10 02:27:01;;;;;;;0.57;0.57;;;15.80;99.90;;;;;;5008783;28;20054;-71
2022/09/10 02:29:26;;;;;;;0.25;0.25;;;15.80;99.90;;;;;;5005928;28;20042;-71
2022/09/10 02:31:52;;;;;;;0.43;0.43;;;15.80;99.90;;;;;;4997560;28;20402;-71
2022/09/10 02:34:19;;;;;;;1.85;1.75;;;15.80;99.90;;;;;;5011040;28;20188;-71
2022/09/10 02:36:45;;;;;;;0.15;0.15;;;15.70;99.90;;;;;;5010780;28;20060;-71
2022/09/10 02:39:11;;;;;;;0.35;0.35;;;15.70;99.90;;;;;;4993074;28;20092;-71
2022/09/10 02:41:40;;;;;;;0.38;0.38;;;15.70;99.90;;;;;;4991629;28;20082;-71
2022/09/10 02:44:06;;;;;;;0.40;0.40;;;15.70;99.90;;;;;;4991705;28;20108;-71
2022/09/10 02:46:32;;;;;;;0.85;0.82;;;15.70;99.90;;;;;;4991073;28;20050;-71
2022/09/10 02:48:58;;;;;;;0.77;0.57;;;15.70;99.90;;;;;;5007368;28;20053;-71
2022/09/10 02:51:24;;;;;;;0.63;0.63;;;15.70;99.90;;;;;;5009649;28;20568;-71
2022/09/10 02:53:49;;;;;;;5.38;0.75;;;15.70;99.90;;;;;;5005782;28;20498;-71
2022/09/10 02:56:16;;;;;;;0.10;0.10;;;15.70;99.90;;;;;;4991655;28;20042;-71
2022/09/10 02:58:42;;;;;;;0.32;0.32;;;15.70;99.90;;;;;;4992185;28;20049;-70
2022/09/10 03:01:13;;;;;;;0.47;0.47;;;15.60;99.90;;;;;;5007058;28;20057;-71
2022/09/10 03:03:39;;;;;;;1.15;1.05;;;15.60;99.90;;;;;;5011629;28;20425;-71
2022/09/10 03:06:05;;;;;;;0.17;0.15;;;15.60;99.90;;;;;;5007783;28;20143;-71
2022/09/10 03:08:31;;;;;;;0.75;0.40;;;15.60;99.90;;;;;;5009415;28;20486;-71
2022/09/10 03:10:58;;;;;;;0.35;0.30;;;15.60;99.90;;;;;;5010236;28;20050;-71
2022/09/10 03:13:28;;;;;;;0.28;0.20;;;15.50;99.90;;;;;;4997684;28;20065;-71
2022/09/10 03:15:54;;;;;;;0.75;0.75;;;15.60;99.90;;;;;;4989939;28;20127;-70
2022/09/10 03:18:21;;;;;;;0.85;0.85;;;15.60;99.90;;;;;;4991295;28;20072;-70
2022/09/10 03:20:48;;;;;;;0.30;0.30;;;15.60;99.90;;;;;;4992251;28;20073;-71
2022/09/10 03:23:14;;;;;;;0.20;0.20;;;15.60;99.90;;;;;;4990459;28;20107;-71
2022/09/10 03:25:40;;;;;;;0.88;0.85;;;15.60;99.90;;;;;;4991686;28;20134;-71
2022/09/10 03:28:05;;;;;;;0.32;0.32;;;15.60;99.90;;;;;;4991118;28;20430;-71
2022/09/10 03:30:32;;;;;;;0.13;0.13;;;15.60;99.90;;;;;;4989702;28;20045;-71
2022/09/10 03:32:57;;;;;;;0.10;0.10;;;15.60;99.90;;;;;;5005605;28;20136;-71
2022/09/10 03:35:23;;;;;;;0.35;0.35;;;15.60;99.90;;;;;;5010682;28;20137;-71
2022/09/10 03:37:49;;;;;;;0.45;0.45;;;15.60;99.90;;;;;;5006833;28;20041;-71
2022/09/10 03:40:15;;;;;;;0.90;0.90;;;15.60;99.90;;;;;;5008862;28;20050;-72
2022/09/10 03:42:41;;;;;;;3.35;0.98;;;15.60;99.90;;;;;;5010130;28;20045;-71
2022/09/10 03:45:07;;;;;;;0.40;0.40;;;15.60;99.90;;;;;;5009682;28;20520;-71
2022/09/10 03:47:35;;;;;;;0.60;0.60;;;15.50;99.90;;;;;;5008179;28;20053;-71
2022/09/10 03:50:01;;;;;;;0.30;0.30;;;15.50;99.90;;;;;;5008737;28;20077;-71
2022/09/10 03:52:28;;;;;;;0.43;0.43;;;15.50;99.90;;;;;;5010732;28;20070;-71
2022/09/10 03:54:54;;;;;;;0.90;0.88;;;15.50;99.90;;;;;;5011063;28;20046;-71
2022/09/10 03:57:21;;;;;;;26.67;2.10;;;15.50;99.90;;;;;;5007596;28;20041;-71
2022/09/10 03:59:46;;;;;;;0.68;0.68;;;15.50;99.90;;;;;;5010600;28;20096;-71
2022/09/10 04:02:13;;;;;;;0.10;0.10;;;15.50;99.90;;;;;;5010488;28;20383;-71
2022/09/10 04:04:39;;;;;;;0.80;0.80;;;15.50;99.90;;;;;;5010054;28;20049;-71
2022/09/10 04:07:05;;;;;;;1.20;1.10;;;15.50;99.90;;;;;;4988819;28;20054;-71
2022/09/10 04:09:31;;;;;;;1.02;0.70;;;15.60;99.90;;;;;;4991379;28;20051;-71
2022/09/10 04:11:58;;;;;;;0.20;0.20;;;15.60;99.90;;;;;;4990693;28;20476;-71
2022/09/10 04:14:25;;;;;;;1.13;0.55;;;15.50;99.90;;;;;;4991919;28;20126;-70
2022/09/10 04:16:51;;;;;;;0.75;0.63;;;15.60;99.90;;;;;;5010650;28;20073;-71
2022/09/10 04:19:17;;;;;;;1.20;0.50;;;15.60;99.90;;;;;;5009445;28;20038;-70
2022/09/10 04:21:43;;;;;;;0.38;0.38;;;15.60;99.90;;;;;;5010567;28;20057;-70
2022/09/10 04:24:11;;;;;;;0.30;0.30;;;15.60;99.90;;;;;;4996550;28;20514;-71
2022/09/10 04:26:36;;;;;;;0.45;0.45;;;15.60;99.90;;;;;;4994161;28;20444;-71
2022/09/10 04:29:02;;;;;;;0.68;0.68;;;15.60;99.90;;;;;;4994605;28;20077;-71
2022/09/10 04:31:28;;;;;;;0.10;0.10;;;15.60;99.90;;;;;;4996379;28;20528;-70
2022/09/10 04:33:53;;;;;;;0.63;0.63;;;15.60;99.90;;;;;;4998577;28;20393;-71
2022/09/10 04:36:19;;;;;;;0.73;0.60;;;15.60;99.90;;;;;;4991703;28;20050;-71
2022/09/10 04:38:45;;;;;;;0.10;0.10;;;15.60;99.90;;;;;;4994357;28;20039;-71
2022/09/10 04:41:14;;;;;;;0.32;0.32;;;15.60;99.90;;;;;;5005175;28;20537;-71
2022/09/10 04:43:40;;;;;;;0.47;0.47;;;15.60;99.90;;;;;;4994394;28;20042;-71
2022/09/10 04:46:06;;;;;;;0.25;0.25;;;15.60;99.90;;;;;;4992708;28;20046;-71
2022/09/10 04:48:32;;;;;;;0.60;0.60;;;15.70;99.90;;;;;;5000032;28;20076;-71
2022/09/10 04:50:58;;;;;;;0.55;0.55;;;15.70;99.90;;;;;;5014371;28;20049;-71
2022/09/10 04:53:26;;;;;;;0.63;0.63;;;15.70;99.90;;;;;;5013056;28;20467;-71
2022/09/10 04:55:53;;;;;;;1.10;1.10;;;15.60;99.90;;;;;;5012811;28;20037;-71
2022/09/10 04:58:20;;;;;;;0.10;0.10;;;15.70;99.90;;;;;;5011278;28;20075;-71
2022/09/10 05:00:45;;;;;;;0.40;0.40;;;15.60;99.90;;;;;;5011738;28;20068;-71
2022/09/10 05:03:12;;;;;;;1.00;0.95;;;15.60;99.90;;;;;;5009897;28;20050;-71
2022/09/10 05:05:38;;;;;;;0.98;0.60;;;15.60;99.90;;;;;;5010777;28;20054;-71
2022/09/10 05:08:07;;;;;;;0.30;0.30;;;15.60;99.90;;;;;;4993067;28;20086;-71
2022/09/10 05:10:34;;;;;;;0.30;0.30;;;15.60;99.90;;;;;;4994529;28;20148;-71
2022/09/10 05:13:00;;;;;;;0.40;0.40;;;15.60;99.90;;;;;;4994161;28;20035;-71
2022/09/10 05:15:26;;;;;;;0.43;0.43;;;15.60;99.90;;;;;;4992134;28;20042;-70
2022/09/10 05:17:52;;;;;;;0.80;0.80;;;15.60;99.90;;;;;;4993701;28;20089;-70
2022/09/10 05:20:18;;;;;;;1.10;1.00;;;15.60;99.90;;;;;;4993354;28;20398;-70
2022/09/10 05:22:43;;;;;;;0.15;0.15;;;15.70;99.90;;;;;;4991336;28;20054;-71
2022/09/10 05:25:09;;;;;;;0.38;0.38;;;15.70;99.90;;;;;;4992097;28;20054;-71
2022/09/10 05:27:35;;;;;;;0.73;0.60;;;15.70;99.90;;;;;;4992461;28;20046;-71
2022/09/10 05:30:01;;;;;;;0.30;0.30;;;15.70;99.90;;;;;;4993002;28;20441;-71
2022/09/10 05:32:27;;;;;;;0.30;0.30;;;15.70;99.90;;;;;;4995163;28;20041;-71
2022/09/10 05:34:53;;;;;;;2.60;0.85;;;15.70;99.90;;;;;;4993665;28;20056;-71
2022/09/10 05:37:19;;;;;;;1.98;0.80;;;15.70;99.90;;;;;;4999391;28;20057;-70
2022/09/10 05:39:47;;;;;;;0.77;0.77;;;15.70;99.90;;;;;;5011629;28;20139;-71
2022/09/10 05:42:13;;;;;;;0.40;0.40;;;15.80;99.90;;;;;;5012766;28;20086;-71
2022/09/10 05:44:40;;;;;;;0.63;0.63;;;15.70;99.90;;;;;;4993454;28;20049;-71
2022/09/10 05:47:06;;;;;;;0.52;0.52;;;15.70;99.90;;;;;;4993007;28;20050;-71
2022/09/10 05:49:32;;;;;;;0.47;0.47;;;15.70;99.90;;;;;;4992839;28;20112;-71
2022/09/10 05:51:58;;;;;;;1.48;0.90;;;15.70;99.90;;;;;;4991786;28;20050;-71
2022/09/10 05:54:24;;;;;;;0.85;0.77;;;15.70;99.90;;;;;;4992899;28;20531;-71
2022/09/10 05:56:50;;;;;;;4.40;0.80;;;15.70;99.90;;;;;;4991654;28;20827;-71
2022/09/10 05:59:15;;;;;;;0.10;0.10;;;15.80;99.90;;;;;;4992667;28;20113;-71
2022/09/10 06:01:41;;;;;;;0.85;0.65;;;15.70;99.90;;;;;;4999251;28;20057;-71
2022/09/10 06:04:09;;;;;;;0.10;0.10;;;15.80;99.90;;;;;;5011318;28;20065;-71
2022/09/10 06:06:35;;;;;;;0.20;0.20;;;15.80;99.90;;;;;;5012867;28;20041;-71
2022/09/10 06:09:01;;;;;;;0.25;0.22;;;15.80;99.90;;;;;;5010729;28;20088;-71
2022/09/10 06:11:26;;;;;;;0.75;0.75;;;15.80;99.90;;;;;;5009462;28;20763;-71
2022/09/10 06:13:52;;;;;;;0.30;0.30;;;15.80;99.90;;;;;;5008945;28;20037;-71
2022/09/10 06:16:18;;;;;;;1.00;0.93;;;15.80;99.90;;;;;;5011732;28;20193;-71
2022/09/10 06:18:46;;;;;;;0.60;0.40;;;15.80;99.90;;;;;;5011633;28;20540;-71
2022/09/10 06:21:14;;;;;;;0.40;0.40;;;15.80;99.90;;;;;;5000654;28;20054;-71
2022/09/10 06:23:41;;;;;;;0.52;0.52;;;15.80;99.90;;;;;;4994017;28;20158;-71
2022/09/10 06:26:11;;;;;;;1.80;0.80;;;15.90;99.90;;;;;;5010694;28;20099;-71
2022/09/10 06:28:37;;;;;;;0.10;0.10;;;15.90;99.90;;;;;;5012285;28;20054;-71
2022/09/10 06:31:05;;;;;;;0.55;0.55;;;15.90;99.90;;;;;;4995675;28;20057;-71
2022/09/10 06:33:31;;;;;;;0.68;0.68;;;16.00;99.90;;;;;;4993117;28;20046;-71
2022/09/10 06:35:58;;;;;;;0.10;0.10;;;16.00;99.90;;;;;;4991185;28;20053;-71
2022/09/10 06:38:27;;;;;;;0.10;0.10;;;16.00;99.90;;;;;;4993054;28;20038;-71
2022/09/10 06:40:56;;;;;;;2.22;0.90;;;16.00;99.90;;;;;;5000124;28;20564;-71
2022/09/10 06:43:23;;;;;;;0.28;0.28;;;16.10;99.90;;;;;;4990778;28;20061;-71
2022/09/10 06:45:57;;;;;;;0.10;0.10;;;16.10;99.90;;;;;;5003979;28;20050;-71
2022/09/10 06:48:27;;;;;;;0.32;0.32;;;16.10;99.90;;;;;;5008027;28;20056;-71
2022/09/10 06:51:00;;;;;;;0.40;0.40;;;16.10;99.90;;;;;;5011669;28;20049;-71
2022/09/10 06:53:29;;;;;;;0.10;0.10;;;16.10;99.90;;;;;;5006598;28;20481;-71
2022/09/10 06:55:55;;;;;;;0.20;0.20;;;16.10;99.90;;;;;;5011316;28;20489;-71
2022/09/10 06:58:23;;;;;;;0.68;0.68;;;16.20;99.90;;;;;;5008726;28;20044;-71
2022/09/10 07:00:50;;;;;;;0.20;0.20;;;16.20;99.90;;;;;;4989464;28;20116;-71
2022/09/10 07:03:18;;;;;;;0.52;0.52;;;16.20;99.90;;;;;;4991551;28;20057;-71
2022/09/10 07:05:47;;;;;;;0.10;0.10;;;16.20;99.90;;;;;;4990657;28;20046;-71
2022/09/10 07:08:15;;;;;;;3.72;1.95;;;16.20;99.90;;;;;;4990625;28;20120;-71
2022/09/10 07:10:43;;;;;;;0.10;0.10;;;16.10;99.90;;;;;;4990802;28;20486;-71
2022/09/10 07:13:09;;;;;;;0.25;0.25;;;16.20;99.90;;;;;;4991276;28;20049;-71
2022/09/10 07:15:35;;;;;;;0.57;0.57;;;16.20;99.90;;;;;;4991255;28;20050;-71
2022/09/10 07:18:02;;;;;;;6.50;1.30;;;16.20;99.90;;;;;;4997932;28;20048;-70
2022/09/10 07:20:28;;;;;;;0.75;0.20;;;16.30;99.90;;;;;;5011059;28;20050;-71
2022/09/10 07:22:57;;;;;;;0.10;0.10;;;16.30;99.90;;;;;;5009376;28;20061;-71
2022/09/10 07:25:24;;;;;;;0.43;0.38;;;16.40;99.90;;;;;;5008808;28;20168;-71
2022/09/10 07:27:50;;;;;;;0.50;0.50;;;16.40;99.90;;;;;;5010037;28;20506;-71
2022/09/10 07:30:16;;;;;;;1.38;0.77;;;16.40;99.90;;;;;;5009935;28;20050;-71
2022/09/10 07:32:42;;;;;;;0.65;0.65;;;16.40;99.90;;;;;;5008847;28;20037;-71
2022/09/10 07:35:08;;;;;;;5.20;1.65;;;16.40;99.90;;;;;;5009734;28;20563;-71
2022/09/10 07:37:34;;;;;;;0.98;0.57;;;16.50;99.90;;;;;;5010960;28;20477;-71
2022/09/10 07:40:00;;;;;;;0.40;0.40;;;16.50;99.90;;;;;;5009083;28;20038;-72
2022/09/10 07:42:25;;;;;;;0.15;0.15;;;16.60;99.90;;;;;;5009372;28;20500;-71
2022/09/10 07:44:51;;;;;;;0.00;0.00;;;16.60;99.90;;;;;;5011349;28;20081;-71
2022/09/10 07:47:17;;;;;;;0.35;0.30;;;16.70;99.90;;;;;;4992377;28;20034;-71
2022/09/10 07:49:43;;;;;;;0.10;0.10;;;16.70;99.90;;;;;;4989563;28;20061;-72
2022/09/10 07:52:10;;;;;;;0.50;0.45;;;16.70;99.90;;;;;;4990573;28;20042;-71
2022/09/10 07:54:36;;;;;;;0.10;0.10;;;16.70;99.90;;;;;;4995732;28;20042;-72
2022/09/10 07:57:03;;;;;;;0.30;0.30;;;16.70;99.90;;;;;;5009687;28;20049;-72
2022/09/10 07:59:29;;;;;;;0.00;0.00;;;16.80;99.90;;;;;;5010313;28;20509;-72
2022/09/10 08:01:55;;;;;;;0.30;0.30;;;16.90;99.90;;;;;;4999904;28;20051;-71
2022/09/10 08:04:20;;;;;;;0.47;0.47;;;16.90;99.90;;;;;;4989197;28;20061;-71
2022/09/10 08:06:46;;;;;;;0.10;0.10;;;17.00;99.90;;;;;;4990823;28;20046;-71
2022/09/10 08:09:13;;;;;;;0.08;0.08;;;17.10;99.90;;;;;;4990712;28;20053;-71
2022/09/10 08:11:40;;;;;;;0.10;0.10;;;17.00;99.90;;;;;;4990419;28;20085;-71
2022/09/10 08:14:05;;;;;;;0.57;0.57;;;17.00;99.90;;;;;;4989368;28;20056;-71
2022/09/10 08:16:32;;;;;;;0.10;0.10;;;17.00;99.90;;;;;;4990839;28;20042;-71
2022/09/10 08:18:59;;;;;;;0.15;0.15;;;17.10;99.90;;;;;;4988934;28;20078;-71
2022/09/10 08:21:25;;;;;;;0.10;0.10;;;17.10;99.90;;;;;;4990454;28;20054;-71
2022/09/10 08:23:54;;;;;;;0.15;0.15;;;17.20;99.90;;;;;;4999805;28;20038;-71
2022/09/10 08:26:22;;;;;;;0.32;0.30;;;17.20;99.90;;;;;;5007864;28;20057;-71
2022/09/10 08:28:48;;;;;;;0.52;0.40;;;17.20;99.90;;;;;;5009245;28;20049;-71
2022/09/10 08:31:15;;;;;;;0.77;0.50;;;17.30;99.90;;;;;;5004532;28;20107;-71
2022/09/10 08:33:45;;;;;;;0.90;0.55;;;17.30;99.90;;;;;;4990578;28;20089;-71
2022/09/10 08:36:13;;;;;;;0.20;0.20;;;17.30;99.90;;;;;;5006852;28;20441;-71
2022/09/10 08:38:39;;;;;;;0.65;0.47;;;17.30;99.90;;;;;;5010078;28;20419;-72
2022/09/10 08:41:27;;;;;;;0.05;0.05;;;17.40;99.90;;;;;;5009688;28;20049;-71
2022/09/10 08:44:02;;;;;;;1.55;1.05;;;17.40;99.90;;;;;;4989887;28;20082;-71
2022/09/10 08:46:33;;;;;;;0.30;0.30;;;17.40;99.90;;;;;;4989838;28;20054;-71
2022/09/10 08:49:25;;;;;;;0.08;0.08;;;17.50;99.90;;;;;;5000176;28;20048;-71
2022/09/10 08:52:05;;;;;;;1.20;1.10;;;17.60;99.90;;;;;;5008903;28;20465;-72
2022/09/10 08:54:39;;;;;;;0.00;0.00;;;17.70;99.90;;;;;;4989160;28;20185;-72
2022/09/10 08:57:09;;;;;;;0.32;0.25;;;17.80;99.90;;;;;;4990453;28;20050;-72
2022/09/10 08:59:41;;;;;;;0.22;0.22;;;17.80;99.90;;;;;;4990213;28;20714;-71
2022/09/10 09:02:20;;;;;;;0.13;0.13;;;17.90;99.90;;;;;;5008881;28;20049;-72
2022/09/10 09:04:57;;;;;;;0.75;0.43;;;18.00;99.90;;;;;;5008950;28;20113;-72
2022/09/10 09:07:25;;;;;;;0.00;0.00;;;17.90;99.90;;;;;;5007519;28;20045;-72
2022/09/10 09:09:51;;;;;;;1.00;0.43;;;17.90;99.90;;;;;;5008028;28;20497;-71
2022/09/10 09:12:34;;;;;;;0.00;0.00;;;17.90;99.90;;;;;;5012314;28;20041;-71
2022/09/10 09:15:24;;;;;;;0.00;0.00;;;17.90;99.90;;;;;;5011502;28;20124;-71
2022/09/10 09:18:07;;;;;;;0.00;0.00;;;17.80;99.90;;;;;;4993926;28;20509;-71
2022/09/10 09:20:50;;;;;;;0.00;0.00;;;17.80;99.90;;;;;;4991780;28;20068;-71
2022/09/10 09:23:20;;;;;;;0.90;0.52;;;17.80;99.90;;;;;;4993404;28;20046;-71
2022/09/10 09:25:56;;;;;;;0.10;0.10;;;17.80;99.90;;;;;;4992072;28;20054;-71
2022/09/10 09:28:32;;;;;;;0.05;0.05;;;17.70;99.90;;;;;;4992529;28;20089;-71
2022/09/10 09:31:00;;;;;;;0.25;0.25;;;17.70;99.90;;;;;;4992580;28;20058;-71
2022/09/10 09:33:28;;;;;;;0.10;0.10;;;17.70;99.90;;;;;;5010972;28;20050;-71
2022/09/10 09:35:59;;;;;;;1.45;0.43;;;17.70;99.90;;;;;;5010118;28;20441;-72
2022/09/10 09:38:39;;;;;;;1.08;0.98;;;17.80;99.90;;;;;;5011353;28;20053;-72
2022/09/10 09:41:15;;;;;;;0.63;0.63;;;17.90;99.90;;;;;;5008783;28;20092;-72
2022/09/10 09:43:58;;;;;;;0.03;0.03;;;18.00;99.90;;;;;;5000218;28;20065;-72
2022/09/10 09:46:24;;;;;;;0.10;0.10;;;18.10;99.90;;;;;;4994112;28;20034;-72
2022/09/10 09:48:58;;;;;;;1.00;1.00;;;18.00;99.90;;;;;;5010487;28;20577;-72
2022/09/10 09:51:29;;;;;;;0.20;0.20;;;18.10;99.90;;;;;;5012704;28;20631;-72
2022/09/10 09:53:59;;;;;;;0.77;0.20;;;18.10;99.90;;;;;;5009120;28;20080;-72
2022/09/10 09:56:35;;;;;;;0.15;0.15;;;18.10;99.90;;;;;;5011911;28;20445;-72
2022/09/10 09:59:10;;;;;;;0.38;0.38;;;18.20;99.90;;;;;;5011378;28;20108;-72
2022/09/10 10:01:41;;;;;;;0.10;0.10;;;18.20;99.90;;;;;;5012616;28;20115;-72
2022/09/10 10:04:23;;;;;;;0.28;0.28;;;18.20;99.90;;;;;;5007851;28;20169;-72
2022/09/10 10:06:57;;;;;;;0.38;0.38;;;18.20;99.90;;;;;;5012881;28;20100;-72
2022/09/10 10:09:31;;;;;;;0.10;0.10;;;18.20;99.90;;;;;;5010872;28;20049;-72
2022/09/10 10:12:03;;;;;;;0.00;0.00;;;18.20;99.90;;;;;;4999048;28;20052;-71
2022/09/10 10:14:40;;;;;;;0.75;0.25;;;18.20;99.90;;;;;;4992569;28;20046;-72
2022/09/10 10:17:28;;;;;;;0.77;0.17;;;18.30;99.90;;;;;;4990573;28;20101;-72
2022/09/10 10:19:58;;;;;;;0.45;0.45;;;18.30;99.90;;;;;;4992884;28;20050;-71
2022/09/10 10:22:31;;;;;;;0.10;0.10;;;18.30;99.90;;;;;;4991125;28;20486;-72
2022/09/10 10:25:01;;;;;;;1.05;0.60;;;18.40;99.90;;;;;;5002708;28;20049;-72
2022/09/10 10:27:41;;;;;;;0.55;0.55;;;18.50;99.90;;;;;;5005906;28;20038;-72
2022/09/10 10:30:16;;;;;;;0.00;0.00;;;18.60;99.90;;;;;;4992134;28;20050;-72
2022/09/10 10:32:57;;;;;;;0.20;0.20;;;18.70;99.90;;;;;;5003872;28;20050;-72
2022/09/10 10:35:40;;;;;;;0.45;0.45;;;18.90;99.90;;;;;;5010400;28;20073;-72
2022/09/10 10:38:27;;;;;;;0.20;0.20;;;19.00;99.90;;;;;;5004041;28;20053;-73
2022/09/10 10:40:59;;;;;;;0.50;0.50;;;19.20;99.90;;;;;;5012038;28;20062;-72
2022/09/10 10:43:49;;;;;;;0.30;0.25;;;19.30;99.90;;;;;;5008415;28;20077;-72
2022/09/10 10:46:19;;;;;;;0.15;0.15;;;19.60;99.90;;;;;;5009683;28;20405;-73
2022/09/10 10:49:19;;;;;;;2.40;0.38;;;19.70;99.90;;;;;;5012316;28;20046;-72
2022/09/10 10:52:08;;;;;;;0.00;0.00;;;19.80;99.90;;;;;;5009473;28;20425;-72
2022/09/10 10:55:02;;;;;;;0.75;0.75;;;19.90;99.90;;;;;;5000098;28;20045;-72
2022/09/10 10:57:30;;;;;;;;;;;20.00;99.90;;;;;;4992283;28;20618;-72
2022/09/10 11:00:08;;;;;;;0.43;0.43;;;19.90;99.90;;;;;;4989911;28;19922;-72
2022/09/10 11:02:43;;;;;;;1.20;0.45;;;19.80;99.90;;;;;;5010331;28;20041;-73
2022/09/10 11:05:41;;;;;;;2.60;1.13;;;19.70;99.90;;;;;;5011119;28;20347;-72
2022/09/10 11:08:13;;;;;;;0.00;0.00;;;19.60;99.90;;;;;;5010119;28;20441;-73
2022/09/10 11:10:43;;;;;;;0.10;0.10;;;19.60;99.90;;;;;;4993883;28;20053;-72
2022/09/10 11:13:40;;;;;;;3.35;1.67;;;19.50;99.90;;;;;;4990908;28;20050;-72
2022/09/10 11:16:27;;;;;;;0.40;0.40;;;19.50;99.90;;;;;;4991387;28;20105;-72
2022/09/10 11:19:01;;;;;;;0.20;0.20;;;19.50;99.90;;;;;;4992811;28;20050;-72
2022/09/10 11:21:28;;;;;;;0.35;0.35;;;19.60;99.90;;;;;;4987979;28;20050;-72
2022/09/10 11:24:06;;;;;;;0.38;0.38;;;19.70;99.90;;;;;;4991489;28;20049;-72
2022/09/10 11:27:04;;;;;;;0.20;0.20;;;19.90;99.90;;;;;;4991249;28;20499;-72
2022/09/10 11:29:53;;;;;;;0.20;0.20;;;20.00;99.90;;;;;;5008889;28;20096;-72
2022/09/10 11:32:38;;;;;;;0.20;0.20;;;20.30;99.90;;;;;;5010525;28;20112;-73
2022/09/10 11:35:41;;;;;;;0.22;0.22;;;20.70;99.90;;;;;;4997847;28;20141;-73
2022/09/10 11:38:28;;;;;;;0.53;0.40;;;20.80;99.90;;;;;;4990727;28;20413;-73
2022/09/10 11:41:21;;;;;;;0.15;0.15;;;21.10;99.90;;;;;;4991677;28;20058;-73
2022/09/10 11:44:33;;;;;;;0.55;0.50;;;21.40;99.90;;;;;;4990275;28;20052;-73
2022/09/10 11:47:11;;;;;;;0.13;0.13;;;21.50;99.90;;;;;;4982208;28;20417;-74
2022/09/10 11:50:14;;;;;;;2.08;1.15;;;21.40;99.90;;;;;;4989321;28;20046;-73
2022/09/10 11:52:40;;;;;;;0.17;0.17;;;21.60;99.90;;;;;;5006701;28;20160;-73
2022/09/10 11:55:13;;;;;;;0.00;0.00;;;21.90;99.90;;;;;;5010373;28;20058;-73
2022/09/10 11:58:04;;;;;;;0.40;0.37;;;21.80;99.90;;;;;;5009352;28;20060;-73
2022/09/10 12:00:36;;;;;;;0.00;0.00;;;21.60;99.90;;;;;;4995487;28;20380;-73
2022/09/10 12:03:45;;;;;;;0.20;0.20;;;21.50;99.90;;;;;;4990356;28;20105;-73
2022/09/10 12:06:25;;;;;;;0.82;0.80;;;21.40;99.90;;;;;;4989329;28;20511;-73
2022/09/10 12:09:07;;;;;;;0.70;0.68;;;21.30;99.90;;;;;;4989959;28;20053;-73
2022/09/10 12:11:55;;;;;;;0.10;0.10;;;21.10;99.90;;;;;;4990354;28;20053;-74
2022/09/10 12:14:20;;;;;;;0.10;0.10;;;21.00;99.90;;;;;;4992154;28;20054;-74
2022/09/10 12:16:52;;;;;;;1.90;1.80;;;21.00;99.90;;;;;;4990507;28;20065;-73
2022/09/10 12:19:32;;;;;;;0.40;0.40;;;21.00;99.90;;;;;;4990403;28;20042;-73
2022/09/10 12:22:03;;;;;;;0.00;0.00;;;21.00;99.90;;;;;;4990015;28;20053;-73
2022/09/10 12:24:35;;;;;;;0.10;0.10;;;20.90;99.90;;;;;;4990064;28;20046;-73
2022/09/10 12:27:03;;;;;;;0.00;0.00;;;20.90;99.90;;;;;;4990856;28;20061;-73
2022/09/10 12:29:36;;;;;;;1.92;0.45;;;20.80;99.90;;;;;;4990552;28;20787;-73
2022/09/10 12:32:08;;;;;;;0.03;0.03;;;20.70;99.90;;;;;;5004727;28;20401;-73
2022/09/10 12:34:37;;;;;;;2.10;0.93;;;20.70;99.90;;;;;;4991106;28;20043;-73
2022/09/10 12:37:02;;;;;;;0.32;0.32;;;20.70;99.90;;;;;;4989459;28;20057;-73
2022/09/10 12:39:29;;;;;;;0.00;0.00;;;20.70;99.90;;;;;;4991223;28;20050;-74
2022/09/10 12:42:21;;;;;;;0.00;0.00;;;20.60;99.90;;;;;;4991272;28;20043;-73
2022/09/10 12:44:47;;;;;;;0.20;0.20;;;20.60;99.90;;;;;;4990333;28;20912;-73
2022/09/10 12:47:16;;;;;;;0.00;0.00;;;20.50;99.90;;;;;;4992681;28;20121;-74
2022/09/10 12:49:52;;;;;;;0.22;0.22;;;20.70;99.90;;;;;;4993921;28;20042;-73
2022/09/10 12:52:38;;;;;;;0.10;0.10;;;20.80;99.90;;;;;;4993383;28;20050;-74
2022/09/10 12:55:37;;;;;;;0.15;0.15;;;21.00;99.90;;;;;;5007953;28;20493;-74
2022/09/10 12:58:27;;;;;;;0.63;0.63;;;21.10;99.90;;;;;;5014460;28;20049;-74
2022/09/10 13:00:53;;;;;;;0.47;0.47;;;21.50;99.90;;;;;;5010258;28;20069;-74
2022/09/10 13:03:20;;;;;;;0.03;0.03;;;21.70;99.90;;;;;;4992450;28;20050;-74
2022/09/10 13:05:46;;;;;;;0.57;0.57;;;21.70;99.90;;;;;;5002297;28;20052;-74
2022/09/10 13:08:14;;;;;;;2.50;1.17;;;21.60;99.90;;;;;;5011047;28;20054;-74
2022/09/10 13:11:01;;;;;;;0.03;0.03;;;21.80;99.90;;;;;;5013227;28;20115;-75